Time;durP1;ratioP1;P1;durP2;ratioP2;P2;SDS_P1;SDS_P2;PMS_P1;PMS_P2;Temp;Humidity;BMP_temperature;BMP_pressure;BME280_temperature;BME280_humidity;BME280_pressure;Samples;Min_cycle;Max_cycle;Signal;HPM_P1;HPM_P2
2021/08/17 00:01:40;;;;;;;46.10;17.88;;;;;;;20.02;36.50;99668.09;5075237;28;20071;-76
2021/08/17 00:04:06;;;;;;;39.03;16.70;;;;;;;19.90;36.49;99661.38;5074987;28;20044;-76
2021/08/17 00:06:32;;;;;;;48.25;18.83;;;;;;;19.88;36.73;99666.13;5058037;28;20083;-76
2021/08/17 00:08:58;;;;;;;43.42;20.45;;;;;;;19.92;36.43;99667.47;5091993;28;20380;-75
2021/08/17 00:11:24;;;;;;;48.13;19.15;;;;;;;19.90;36.24;99664.09;5091564;28;20052;-75
2021/08/17 00:13:50;;;;;;;53.88;19.15;;;;;;;19.90;36.07;99674.94;5074691;28;20088;-75
2021/08/17 00:16:16;;;;;;;31.65;14.95;;;;;;;19.89;35.50;99667.81;5074899;28;20078;-75
2021/08/17 00:18:42;;;;;;;32.20;15.25;;;;;;;19.88;35.34;99661.53;5057792;28;20040;-76
2021/08/17 00:21:08;;;;;;;53.47;21.92;;;;;;;19.93;35.38;99669.16;5091895;28;20040;-74
2021/08/17 00:23:34;;;;;;;39.38;17.73;;;;;;;19.94;35.39;99664.59;5041599;28;20056;-74
2021/08/17 00:26:00;;;;;;;39.90;14.93;;;;;;;19.89;35.19;99654.25;5058317;28;20101;-74
2021/08/17 00:28:26;;;;;;;54.65;18.02;;;;;;;19.89;35.41;99646.09;5041603;28;20040;-74
2021/08/17 00:30:52;;;;;;;40.70;16.00;;;;;;;19.90;35.22;99647.81;5074887;28;20131;-75
2021/08/17 00:33:18;;;;;;;44.85;15.85;;;;;;;19.96;35.33;99647.09;5074599;28;20127;-76
2021/08/17 00:35:44;;;;;;;62.75;21.50;;;;;;;19.99;34.91;99652.16;5041459;28;20082;-75
2021/08/17 00:38:10;;;;;;;37.13;17.67;;;;;;;20.00;34.83;99637.56;5074778;28;20458;-74
2021/08/17 00:40:36;;;;;;;44.63;19.13;;;;;;;19.98;34.98;99642.34;5041732;28;20123;-75
2021/08/17 00:43:02;;;;;;;37.60;15.60;;;;;;;20.11;34.53;99660.78;5074735;28;20487;-74
2021/08/17 00:45:29;;;;;;;37.38;15.52;;;;;;;20.07;34.01;99644.00;5057871;28;20504;-75
2021/08/17 00:47:55;;;;;;;44.60;17.33;;;;;;;20.18;33.88;99655.50;5024976;28;20047;-76
2021/08/17 00:50:25;;;;;;;39.00;14.27;;;;;;;20.20;33.65;99658.84;5058072;28;20044;-74
2021/08/17 00:52:51;;;;;;;42.78;15.93;;;;;;;20.25;33.39;99659.19;5059079;28;20044;-75
2021/08/17 00:55:17;;;;;;;37.47;17.27;;;;;;;20.28;33.77;99646.09;5024825;28;20044;-75
2021/08/17 00:57:44;;;;;;;45.13;20.75;;;;;;;20.29;33.64;99650.50;5057963;28;20121;-75
2021/08/17 01:00:10;;;;;;;40.40;14.82;;;;;;;20.29;33.74;99641.53;5075105;28;20044;-75
2021/08/17 01:02:36;;;;;;;53.50;15.93;;;;;;;20.26;33.88;99641.88;5061901;28;20075;-74
2021/08/17 01:05:06;;;;;;;43.42;18.13;;;;;;;20.32;34.05;99654.75;5061409;28;20102;-74
2021/08/17 01:07:32;;;;;;;37.97;16.27;;;;;;;20.30;33.95;99656.78;5078539;28;20525;-74
2021/08/17 01:09:58;;;;;;;44.05;21.27;;;;;;;20.26;33.80;99653.56;5061506;28;20044;-75
2021/08/17 01:12:24;;;;;;;49.55;19.35;;;;;;;20.32;34.53;99663.72;5061877;28;20051;-76
2021/08/17 01:14:50;;;;;;;45.15;17.83;;;;;;;20.28;34.35;99665.09;5094418;28;20495;-75
2021/08/17 01:17:17;;;;;;;40.05;16.67;;;;;;;20.28;34.22;99659.69;5078072;28;20157;-76
2021/08/17 01:19:44;;;;;;;45.80;20.27;;;;;;;20.32;34.58;99662.88;5061555;28;20043;-75
2021/08/17 01:22:10;;;;;;;52.45;21.90;;;;;;;20.33;34.72;99667.28;5094813;28;20043;-76
2021/08/17 01:24:36;;;;;;;40.53;17.65;;;;;;;20.35;34.93;99667.97;5095114;28;20044;-74
2021/08/17 01:27:02;;;;;;;45.55;20.08;;;;;;;20.36;34.70;99669.66;5096058;28;20040;-75
2021/08/17 01:29:28;;;;;;;40.92;17.55;;;;;;;20.29;34.98;99660.53;5077916;28;20044;-75
2021/08/17 01:31:56;;;;;;;47.33;16.73;;;;;;;20.32;34.97;99669.16;5094544;28;20036;-75
2021/08/17 01:34:23;;;;;;;37.08;16.17;;;;;;;20.22;34.83;99659.53;5078039;28;20387;-76
2021/08/17 01:36:50;;;;;;;56.63;17.63;;;;;;;20.14;35.17;99650.41;5077725;28;20044;-75
2021/08/17 01:39:16;;;;;;;50.80;20.00;;;;;;;20.27;35.60;99671.56;5094591;28;20048;-76
2021/08/17 01:41:43;;;;;;;44.33;19.42;;;;;;;20.20;35.44;99665.16;5077439;28;20078;-74
2021/08/17 01:44:13;;;;;;;55.08;18.48;;;;;;;20.26;35.77;99666.31;5061033;28;20070;-75
2021/08/17 01:46:40;;;;;;;43.72;17.92;;;;;;;20.26;35.45;99669.00;5060730;28;20047;-75
2021/08/17 01:49:06;;;;;;;48.58;17.80;;;;;;;20.23;35.43;99666.66;5094206;28;20040;-75
2021/08/17 01:51:32;;;;;;;46.67;17.08;;;;;;;20.25;35.44;99680.91;5094215;28;20081;-74
2021/08/17 01:53:59;;;;;;;49.53;21.23;;;;;;;20.24;35.50;99671.09;5077311;28;20503;-75
2021/08/17 01:56:25;;;;;;;47.33;20.83;;;;;;;20.29;35.45;99674.94;5093973;28;20519;-75
2021/08/17 01:58:50;;;;;;;44.30;16.60;;;;;;;20.37;35.15;99683.03;5077162;28;20086;-75
2021/08/17 02:01:16;;;;;;;41.47;18.10;;;;;;;20.37;35.05;99676.75;5044486;28;20044;-75
2021/08/17 02:03:42;;;;;;;47.25;18.02;;;;;;;20.54;34.79;99688.44;5043979;28;20066;-75
2021/08/17 02:06:09;;;;;;;43.92;18.67;;;;;;;20.60;34.80;99693.97;5076867;28;20387;-76
2021/08/17 02:08:35;;;;;;;37.85;16.95;;;;;;;20.67;34.69;99690.56;5043540;28;20036;-75
2021/08/17 02:11:01;;;;;;;48.63;18.60;;;;;;;20.69;34.76;99680.38;5060062;28;20043;-76
2021/08/17 02:13:28;;;;;;;59.72;17.38;;;;;;;20.77;34.58;99685.75;5076432;28;20174;-75
2021/08/17 02:15:55;;;;;;;49.60;16.40;;;;;;;20.87;34.56;99694.47;5060720;28;20048;-76
2021/08/17 02:18:21;;;;;;;50.17;17.25;;;;;;;20.88;34.54;99679.88;5076934;28;20040;-75
2021/08/17 02:20:47;;;;;;;39.17;17.00;;;;;;;21.03;34.54;99688.09;5060239;28;20048;-76
2021/08/17 02:23:13;;;;;;;49.30;18.38;;;;;;;21.17;34.37;99697.31;5093354;28;20055;-75
2021/08/17 02:25:39;;;;;;;52.38;19.83;;;;;;;21.17;34.51;99675.56;5060234;28;20082;-76
2021/08/17 02:28:05;;;;;;;41.58;19.23;;;;;;;21.30;34.66;99692.97;5076604;28;20043;-76
2021/08/17 02:30:32;;;;;;;54.72;19.85;;;;;;;21.26;35.08;99671.75;5043371;28;20141;-76
2021/08/17 02:32:57;;;;;;;46.97;20.85;;;;;;;21.30;35.17;99678.53;5094102;28;20059;-77
2021/08/17 02:35:23;;;;;;;42.08;19.55;;;;;;;21.37;34.98;99689.56;5076164;28;20043;-76
2021/08/17 02:37:49;;;;;;;51.53;20.35;;;;;;;21.32;35.22;99681.88;5076438;28;20040;-77
2021/08/17 02:40:15;;;;;;;43.97;19.63;;;;;;;21.40;35.33;99695.47;5093750;28;20112;-77
2021/08/17 02:42:41;;;;;;;39.58;17.65;;;;;;;21.43;35.40;99692.34;5075114;28;20124;-76
2021/08/17 02:45:08;;;;;;;44.08;17.90;;;;;;;21.46;35.43;99697.44;5059253;28;20036;-76
2021/08/17 02:47:34;;;;;;;60.83;18.35;;;;;;;21.51;35.47;99695.03;5075862;28;20048;-76
2021/08/17 02:50:00;;;;;;;41.70;15.85;;;;;;;21.49;35.36;99686.19;5042369;28;20036;-76
2021/08/17 02:52:26;;;;;;;41.42;16.73;;;;;;;21.63;35.67;99700.00;5075683;28;20559;-76
2021/08/17 02:54:52;;;;;;;39.05;17.13;;;;;;;21.60;35.66;99705.81;5042553;28;20122;-76
2021/08/17 02:57:18;;;;;;;47.08;16.95;;;;;;;21.54;35.76;99700.06;5042103;28;20181;-76
2021/08/17 02:59:44;;;;;;;39.70;20.10;;;;;;;21.53;35.93;99701.09;5058610;28;20468;-76
2021/08/17 03:02:10;;;;;;;42.25;18.98;;;;;;;21.52;36.06;99702.16;5075498;28;20068;-77
2021/08/17 03:04:37;;;;;;;45.70;19.73;;;;;;;21.63;35.93;99694.56;5059115;28;20044;-75
2021/08/17 03:07:06;;;;;;;45.22;18.92;;;;;;;21.77;35.44;99696.44;5092218;28;20092;-75
2021/08/17 03:09:32;;;;;;;46.35;19.05;;;;;;;21.89;35.40;99705.84;5075458;28;20359;-75
2021/08/17 03:11:58;;;;;;;50.05;19.60;;;;;;;21.87;35.13;99686.13;5075793;28;20050;-76
2021/08/17 03:14:24;;;;;;;53.92;19.55;;;;;;;21.96;34.67;99697.75;5071629;28;20056;-76
2021/08/17 03:16:50;;;;;;;48.38;18.33;;;;;;;22.04;35.01;99703.97;5075591;28;20047;-75
2021/08/17 03:19:16;;;;;;;38.28;17.75;;;;;;;22.06;34.45;99706.50;5027750;28;20035;-75
2021/08/17 03:21:42;;;;;;;52.35;17.83;;;;;;;22.14;34.31;99702.88;5076162;28;20481;-75
2021/08/17 03:24:08;;;;;;;51.55;18.15;;;;;;;22.11;34.32;99705.94;5091885;28;20047;-74
2021/08/17 03:26:34;;;;;;;46.22;17.48;;;;;;;22.21;34.21;99699.19;5093910;28;20453;-75
2021/08/17 03:29:00;;;;;;;38.35;17.40;;;;;;;22.37;34.25;99702.75;5025927;28;20040;-74
2021/08/17 03:31:26;;;;;;;37.97;17.48;;;;;;;22.48;34.22;99700.38;5073003;28;20048;-75
2021/08/17 03:33:52;;;;;;;37.13;17.08;;;;;;;22.62;33.94;99706.00;5081958;28;20193;-75
2021/08/17 03:36:18;;;;;;;50.45;19.33;;;;;;;22.74;33.71;99699.00;5071696;28;20048;-73
2021/08/17 03:38:44;;;;;;;52.40;18.42;;;;;;;22.84;32.89;99704.16;5055132;28;20040;-75
2021/08/17 03:41:10;;;;;;;49.08;18.77;;;;;;;22.91;33.39;99703.22;5054929;28;20094;-75
2021/08/17 03:43:37;;;;;;;54.85;19.45;;;;;;;23.02;33.45;99710.88;5054810;28;20063;-74
2021/08/17 03:46:05;;;;;;;43.05;18.42;;;;;;;23.14;33.02;99704.91;5072731;28;20037;-76
2021/08/17 03:48:31;;;;;;;41.13;18.50;;;;;;;23.29;32.75;99708.41;5038842;28;20052;-74
2021/08/17 03:50:57;;;;;;;47.17;19.15;;;;;;;23.35;32.71;99704.84;5037806;28;20137;-77
2021/08/17 03:53:23;;;;;;;43.65;17.33;;;;;;;23.43;33.02;99704.75;5054660;28;20048;-76
2021/08/17 03:55:49;;;;;;;43.58;16.70;;;;;;;23.48;33.46;99706.88;5071427;28;20051;-79
2021/08/17 03:58:15;;;;;;;43.65;17.85;;;;;;;23.58;33.37;99711.97;5055704;28;20046;-80
2021/08/17 04:00:41;;;;;;;46.97;18.05;;;;;;;23.65;32.47;99707.41;5056579;28;20139;-78
2021/08/17 04:03:08;;;;;;;41.35;17.60;;;;;;;23.69;32.29;99693.19;5039955;28;20131;-78
2021/08/17 04:05:33;;;;;;;46.88;18.08;;;;;;;23.85;32.15;99703.00;5073066;28;20515;-77
2021/08/17 04:07:59;;;;;;;42.05;17.85;;;;;;;23.86;31.76;99701.94;5022022;28;20069;-76
2021/08/17 04:10:25;;;;;;;39.83;17.48;;;;;;;23.90;31.75;99700.50;5055911;28;20062;-78
2021/08/17 04:12:51;;;;;;;65.82;17.92;;;;;;;23.99;31.68;99704.72;5038466;28;20055;-77
2021/08/17 04:15:17;;;;;;;39.85;17.30;;;;;;;24.12;31.46;99700.41;5038053;28;20051;-79
2021/08/17 04:17:43;;;;;;;53.47;18.58;;;;;;;24.23;31.59;99703.41;5022275;28;20047;-77
2021/08/17 04:20:10;;;;;;;40.05;18.08;;;;;;;24.40;30.96;99695.72;5056467;28;20044;-79
2021/08/17 04:22:37;;;;;;;49.42;18.00;;;;;;;24.53;30.87;99699.59;5038225;28;20463;-78
2021/08/17 04:25:04;;;;;;;40.70;18.75;;;;;;;24.64;30.75;99699.00;5071164;28;20105;-77
2021/08/17 04:27:30;;;;;;;48.55;17.67;;;;;;;24.76;30.65;99688.31;5037486;28;20045;-79
2021/08/17 04:29:55;;;;;;;50.10;18.92;;;;;;;24.91;30.43;99697.16;5037484;28;20044;-77
2021/08/17 04:32:21;;;;;;;55.35;18.75;;;;;;;25.05;30.50;99681.59;5037867;28;20131;-77
2021/08/17 04:34:47;;;;;;;53.00;19.42;;;;;;;25.28;29.74;99690.31;5037779;28;20490;-78
2021/08/17 04:37:13;;;;;;;52.00;19.15;;;;;;;25.47;29.80;99685.06;5042048;28;20055;-77
2021/08/17 04:39:39;;;;;;;54.08;19.67;;;;;;;25.66;29.59;99679.53;5025138;28;20062;-77
2021/08/17 04:42:05;;;;;;;55.40;19.52;;;;;;;25.87;29.27;99683.94;5023169;28;20545;-77
2021/08/17 04:44:31;;;;;;;43.78;19.95;;;;;;;26.07;28.82;99685.81;5056163;28;20139;-79
2021/08/17 04:46:57;;;;;;;40.70;18.58;;;;;;;26.16;28.73;99690.00;5056138;28;20094;-79
2021/08/17 04:49:23;;;;;;;46.35;18.33;;;;;;;26.31;28.85;99681.53;5072608;28;20519;-78
2021/08/17 04:51:49;;;;;;;56.72;18.83;;;;;;;26.36;28.80;99679.78;5056272;28;20125;-79
2021/08/17 04:54:15;;;;;;;52.72;19.45;;;;;;;26.46;29.03;99689.50;5074666;28;20399;-80
2021/08/17 04:56:41;;;;;;;54.80;21.33;;;;;;;26.57;28.80;99688.81;5074326;28;20539;-77
2021/08/17 04:59:07;;;;;;;83.57;23.02;;;;;;;26.68;28.70;99690.03;5041649;28;20048;-78
2021/08/17 05:01:33;;;;;;;48.92;19.42;;;;;;;26.77;28.58;99706.00;5058392;28;20044;-77
2021/08/17 05:03:59;;;;;;;49.80;21.33;;;;;;;26.83;28.46;99691.41;5025324;28;20048;-78
2021/08/17 05:06:25;;;;;;;60.00;20.50;;;;;;;26.97;28.52;99696.81;5025592;28;20089;-78
2021/08/17 05:08:50;;;;;;;51.63;22.05;;;;;;;26.98;28.66;99676.56;5042003;28;20052;-77
2021/08/17 05:11:16;;;;;;;60.83;21.33;;;;;;;27.20;28.51;99691.63;5058374;28;20553;-78
2021/08/17 05:13:42;;;;;;;39.00;19.45;;;;;;;27.22;28.42;99684.00;5041267;28;20463;-79
2021/08/17 05:16:10;;;;;;;49.78;19.30;;;;;;;27.23;28.45;99696.69;5059009;28;20049;-79
2021/08/17 05:18:36;;;;;;;51.23;19.73;;;;;;;27.31;28.03;99687.31;5060673;28;20041;-78
2021/08/17 05:21:02;;;;;;;44.03;18.60;;;;;;;27.39;28.11;99697.19;5058792;28;20087;-76
2021/08/17 05:23:28;;;;;;;46.15;18.20;;;;;;;27.54;27.85;99697.69;5059231;28;20071;-79
2021/08/17 05:25:54;;;;;;;45.92;19.38;;;;;;;27.70;27.56;99694.38;5042058;28;20434;-77
2021/08/17 05:28:21;;;;;;;41.90;19.33;;;;;;;27.76;27.27;99684.44;5058862;28;20123;-76
2021/08/17 05:30:47;;;;;;;52.25;20.33;;;;;;;27.90;27.33;99707.09;5043205;28;20048;-78
2021/08/17 05:33:13;;;;;;;39.08;19.25;;;;;;;27.93;27.21;99690.16;5064198;28;20082;-78
2021/08/17 05:35:40;;;;;;;38.22;20.08;;;;;;;28.05;27.10;99700.16;5081476;28;20056;-78
2021/08/17 05:38:06;;;;;;;42.72;19.08;;;;;;;28.11;27.15;99687.44;5084158;28;20096;-80
2021/08/17 05:40:32;;;;;;;43.95;19.45;;;;;;;28.21;26.91;99687.75;5064600;28;20086;-77
2021/08/17 05:42:58;;;;;;;41.28;20.30;;;;;;;28.29;26.79;99683.84;5048659;28;20095;-78
2021/08/17 05:45:25;;;;;;;45.13;19.20;;;;;;;28.32;26.48;99700.72;5051177;28;20041;-78
2021/08/17 05:47:51;;;;;;;46.45;19.02;;;;;;;28.50;26.61;99707.28;5049589;28;20052;-80
2021/08/17 05:50:17;;;;;;;54.28;20.15;;;;;;;28.61;26.30;99703.75;5029697;28;20044;-78
2021/08/17 05:52:44;;;;;;;51.90;19.52;;;;;;;28.73;26.13;99712.06;5042841;28;20033;-79
2021/08/17 05:55:10;;;;;;;49.60;20.58;;;;;;;28.80;25.96;99708.16;5042313;28;20044;-79
2021/08/17 05:57:36;;;;;;;47.75;20.85;;;;;;;28.91;25.96;99684.50;5042652;28;20036;-77
2021/08/17 06:00:08;;;;;;;36.47;18.90;;;;;;;29.01;26.06;99695.00;5025096;28;20412;-79
2021/08/17 06:02:43;;;;;;;54.60;20.45;;;;;;;29.14;25.81;99688.44;5058868;28;20498;-78
2021/08/17 06:05:09;;;;;;;42.33;19.73;;;;;;;29.25;25.77;99704.97;5057084;28;20414;-77
2021/08/17 06:07:36;;;;;;;42.95;18.55;;;;;;;29.31;25.31;99699.63;5041413;28;20049;-79
2021/08/17 06:10:03;;;;;;;47.97;19.70;;;;;;;29.50;25.30;99698.44;5073971;28;20048;-77
2021/08/17 06:12:29;;;;;;;52.35;20.80;;;;;;;29.59;25.08;99699.78;5074865;28;20064;-77
2021/08/17 06:14:55;;;;;;;41.05;18.55;;;;;;;29.62;24.81;99710.34;5073029;28;20061;-78
2021/08/17 06:17:21;;;;;;;38.15;19.45;;;;;;;29.69;24.84;99700.03;5074041;28;20053;-78
2021/08/17 06:19:46;;;;;;;47.03;18.05;;;;;;;29.89;24.90;99698.84;5074438;28;20040;-79
2021/08/17 06:22:12;;;;;;;48.85;18.65;;;;;;;30.09;24.64;99710.34;5073246;28;20078;-77
2021/08/17 06:24:38;;;;;;;43.63;17.90;;;;;;;30.23;24.96;99692.47;5023751;28;20086;-78
2021/08/17 06:27:04;;;;;;;42.40;18.00;;;;;;;30.45;24.03;99694.59;5040582;28;20406;-77
2021/08/17 06:29:30;;;;;;;31.40;17.27;;;;;;;30.40;24.48;99695.31;5072930;28;20097;-79
2021/08/17 06:31:56;;;;;;;37.13;16.65;;;;;;;30.67;24.22;99703.03;5056196;28;20032;-79
2021/08/17 06:34:22;;;;;;;29.75;15.63;;;;;;;30.72;24.01;99703.94;5039612;28;20043;-77
2021/08/17 06:36:48;;;;;;;38.08;16.98;;;;;;;30.73;23.97;99677.22;5039979;28;20080;-79
2021/08/17 06:39:15;;;;;;;37.03;16.92;;;;;;;30.85;23.54;99688.25;5039643;28;20051;-78
2021/08/17 06:41:41;;;;;;;37.08;16.02;;;;;;;30.99;22.88;99697.88;5039659;28;20153;-78
2021/08/17 06:44:07;;;;;;;35.10;17.42;;;;;;;31.08;22.52;99692.78;5056143;28;20051;-78
2021/08/17 06:46:33;;;;;;;35.72;17.02;;;;;;;31.14;22.53;99684.38;5039525;28;20044;-77
2021/08/17 06:49:00;;;;;;;37.47;15.52;;;;;;;31.33;22.19;99689.66;5072445;28;20407;-80
2021/08/17 06:51:26;;;;;;;35.55;16.33;;;;;;;31.37;21.97;99682.56;5072383;28;20051;-78
2021/08/17 06:53:53;;;;;;;49.47;16.27;;;;;;;31.61;22.00;99689.59;5023590;28;20041;-77
2021/08/17 06:56:18;;;;;;;42.47;15.55;;;;;;;31.83;21.89;99691.56;5039353;28;20082;-78
2021/08/17 06:58:44;;;;;;;42.88;15.43;;;;;;;32.07;21.73;99693.06;5038541;28;20044;-78
2021/08/17 07:01:10;;;;;;;34.60;15.23;;;;;;;32.19;20.99;99689.34;5072667;28;20094;-77
2021/08/17 07:03:36;;;;;;;35.97;14.88;;;;;;;32.06;21.25;99691.38;5055906;28;20129;-79
2021/08/17 07:06:05;;;;;;;;;;;;;;;32.29;21.40;99695.00;5056280;28;20499;-79
2021/08/17 07:08:32;;;;;;;26.30;15.07;;;;;;;32.46;20.85;99682.00;5038837;28;20378;-78
2021/08/17 07:10:57;;;;;;;36.03;14.70;;;;;;;32.62;20.30;99678.28;5022139;28;20044;-77
2021/08/17 07:13:24;;;;;;;37.05;14.35;;;;;;;32.80;20.70;99687.34;5038089;28;20074;-79
2021/08/17 07:15:51;;;;;;;32.13;14.82;;;;;;;33.00;20.46;99684.81;5022320;28;20040;-79
2021/08/17 07:18:16;;;;;;;34.70;14.02;;;;;;;33.26;19.91;99687.84;5006718;28;20036;-77
2021/08/17 07:20:42;;;;;;;35.45;14.82;;;;;;;33.29;19.95;99687.31;5055906;28;20070;-78
2021/08/17 07:23:08;;;;;;;41.53;14.38;;;;;;;33.48;19.80;99691.38;5022669;28;20074;-77
2021/08/17 07:25:35;;;;;;;38.65;14.50;;;;;;;33.70;19.44;99684.88;5055655;28;20041;-77
2021/08/17 07:28:02;;;;;;;25.08;13.30;;;;;;;33.87;19.32;99682.78;5039036;28;20044;-76
2021/08/17 07:30:29;;;;;;;27.17;13.20;;;;;;;34.11;18.72;99682.38;5039908;28;20502;-78
2021/08/17 07:32:55;;;;;;;30.30;13.43;;;;;;;34.26;18.38;99685.22;5071801;28;20105;-77
2021/08/17 07:35:21;;;;;;;22.95;13.35;;;;;;;34.38;18.32;99679.44;5071841;28;20076;-78
2021/08/17 07:37:47;;;;;;;36.53;13.57;;;;;;;34.54;18.33;99684.84;5055195;28;20041;-79
2021/08/17 07:40:14;;;;;;;29.83;14.27;;;;;;;34.76;18.16;99686.56;5038600;28;20454;-78
2021/08/17 07:42:40;;;;;;;39.75;13.32;;;;;;;35.00;18.25;99684.97;5038657;28;20048;-78
2021/08/17 07:45:08;;;;;;;28.05;13.73;;;;;;;35.10;17.63;99673.06;5038710;28;20044;-77
2021/08/17 07:47:35;;;;;;;31.67;14.15;;;;;;;35.18;17.91;99677.22;5055349;28;20066;-79
2021/08/17 07:50:01;;;;;;;26.63;13.45;;;;;;;35.31;17.71;99679.44;5022014;28;20115;-77
2021/08/17 07:52:29;;;;;;;32.42;14.63;;;;;;;35.63;17.53;99681.16;5038509;28;20086;-80
2021/08/17 07:54:55;;;;;;;29.65;13.90;;;;;;;35.84;16.71;99676.38;5038972;28;20040;-79
2021/08/17 07:57:21;;;;;;;28.85;13.10;;;;;;;35.93;15.76;99675.53;5055451;28;20052;-78
2021/08/17 07:59:47;;;;;;;25.48;13.05;;;;;;;36.08;16.22;99676.63;5054902;28;20042;-78
2021/08/17 08:02:13;;;;;;;27.35;12.73;;;;;;;36.14;15.76;99670.75;5021908;28;20051;-78
2021/08/17 08:04:39;;;;;;;28.15;13.95;;;;;;;35.78;15.23;99678.34;5038396;28;20040;-77
2021/08/17 08:07:05;;;;;;;25.13;13.98;;;;;;;35.83;15.61;99675.53;5071328;28;20048;-78
2021/08/17 08:09:31;;;;;;;29.65;13.73;;;;;;;35.88;15.20;99671.91;5071265;28;20119;-77
2021/08/17 08:11:57;;;;;;;30.83;14.00;;;;;;;35.88;15.45;99671.91;5038795;28;20047;-77
2021/08/17 08:14:23;;;;;;;34.15;13.32;;;;;;;35.93;15.29;99653.25;5004846;28;20052;-78
2021/08/17 08:16:49;;;;;;;24.45;13.55;;;;;;;36.12;15.46;99673.00;5038759;28;20044;-78
2021/08/17 08:19:15;;;;;;;23.50;13.95;;;;;;;36.40;14.94;99662.28;5054483;28;20457;-78
2021/08/17 08:21:41;;;;;;;25.15;13.80;;;;;;;36.41;14.58;99663.94;5054675;28;20082;-78
2021/08/17 08:24:07;;;;;;;22.40;12.93;;;;;;;36.60;14.85;99667.81;5054582;28;20068;-78
2021/08/17 08:26:33;;;;;;;27.80;13.98;;;;;;;36.49;14.08;99649.50;5021360;28;20056;-77
2021/08/17 08:28:59;;;;;;;34.70;14.18;;;;;;;36.68;14.32;99663.59;5038462;28;20040;-77
2021/08/17 08:31:25;;;;;;;23.00;14.13;;;;;;;36.72;13.95;99656.31;5054660;28;20068;-77
2021/08/17 08:33:51;;;;;;;27.08;14.35;;;;;;;36.78;13.56;99655.16;5037722;28;20394;-76
2021/08/17 08:36:18;;;;;;;33.67;13.95;;;;;;;37.02;13.56;99646.94;5037866;28;20113;-77
2021/08/17 08:38:44;;;;;;;29.15;13.43;;;;;;;37.37;13.52;99643.03;5054567;28;20491;-77
2021/08/17 08:41:15;;;;;;;24.60;13.73;;;;;;;37.52;13.09;99644.03;5037895;28;20054;-78
2021/08/17 08:50:08;;;;;;;24.88;13.90;;;;;;;37.76;12.54;99644.91;5059581;28;20121;-77
2021/08/17 09:07:42;;;;;;;20.00;13.20;;;;;;;38.16;11.53;99640.00;5071416;28;20129;-77
2021/08/17 09:10:47;;;;;;;21.33;13.68;;;;;;;38.23;11.46;99626.53;5071069;28;20474;-77
2021/08/17 09:16:38;;;;;;;26.90;14.85;;;;;;;38.33;10.91;99634.78;5059610;28;20062;-77
2021/08/17 09:19:04;;;;;;;26.42;13.70;;;;;;;38.54;10.77;99626.97;5070704;28;20507;-77
2021/08/17 09:21:40;;;;;;;19.30;13.80;;;;;;;38.35;10.43;99612.97;5038704;28;20061;-77
2021/08/17 09:24:22;;;;;;;21.83;13.43;;;;;;;38.55;10.63;99625.00;5041654;28;20051;-78
2021/08/17 09:26:59;;;;;;;21.98;13.82;;;;;;;38.81;10.80;99629.09;5074155;28;20041;-77
2021/08/17 09:29:37;;;;;;;23.20;13.48;;;;;;;38.77;11.12;99622.44;5058157;28;20056;-76
2021/08/17 09:32:12;;;;;;;31.38;14.45;;;;;;;39.15;11.08;99625.22;5074110;28;20102;-77
2021/08/17 09:34:38;;;;;;;23.02;13.60;;;;;;;39.13;10.32;99621.91;5057619;28;20044;-77
2021/08/17 09:37:08;;;;;;;23.05;14.23;;;;;;;39.15;10.44;99613.19;5023957;28;20143;-77
2021/08/17 09:39:39;;;;;;;22.38;12.75;;;;;;;39.38;9.84;99622.63;5073904;28;20044;-76
2021/08/17 09:42:24;;;;;;;20.17;12.70;;;;;;;39.52;10.08;99618.72;5041822;28;20049;-78
2021/08/17 09:45:08;;;;;;;21.35;13.25;;;;;;;39.36;9.91;99619.31;5024415;28;20052;-77
2021/08/17 09:47:37;;;;;;;21.13;12.70;;;;;;;38.78;9.74;99609.28;5073729;28;20136;-77
2021/08/17 09:50:17;;;;;;;18.77;13.18;;;;;;;38.17;10.18;99610.97;5073701;28;20399;-77
2021/08/17 09:52:43;;;;;;;22.20;13.20;;;;;;;38.04;10.47;99603.34;5040742;28;20051;-77
2021/08/17 09:55:16;;;;;;;26.83;13.55;;;;;;;38.61;10.50;99610.66;5040545;28;20040;-78
2021/08/17 09:57:42;;;;;;;26.58;13.50;;;;;;;39.27;10.22;99606.03;5041165;28;20056;-77
2021/08/17 10:00:14;;;;;;;22.88;13.10;;;;;;;39.97;10.22;99596.59;5057156;28;20044;-78
2021/08/17 10:02:45;;;;;;;25.40;13.68;;;;;;;39.69;9.63;99606.13;5041730;28;20045;-78
2021/08/17 10:05:12;;;;;;;24.23;13.23;;;;;;;39.99;9.68;99599.09;5040741;28;20062;-77
2021/08/17 10:07:39;;;;;;;24.10;12.52;;;;;;;40.55;9.29;99600.69;5040522;28;20048;-77
2021/08/17 10:10:07;;;;;;;22.67;13.20;;;;;;;40.54;9.77;99593.41;5040769;28;20040;-76
2021/08/17 10:12:33;;;;;;;26.77;13.63;;;;;;;40.83;9.91;99601.44;5023886;28;20067;-78
2021/08/17 10:14:59;;;;;;;21.52;13.05;;;;;;;40.94;8.87;99596.44;5023325;28;20503;-77
2021/08/17 10:17:25;;;;;;;24.90;13.02;;;;;;;41.05;9.26;99589.44;5040060;28;20097;-77
2021/08/17 10:19:50;;;;;;;18.45;13.70;;;;;;;41.37;8.98;99595.91;5074290;28;20091;-77
2021/08/17 10:22:16;;;;;;;24.48;13.05;;;;;;;41.54;8.74;99589.59;5056857;28;20040;-78
2021/08/17 10:24:43;;;;;;;20.90;13.20;;;;;;;41.30;9.00;99592.72;5039860;28;20048;-77
2021/08/17 10:27:33;;;;;;;21.45;13.20;;;;;;;41.09;8.81;99593.25;5039689;28;20036;-79
2021/08/17 10:30:14;;;;;;;21.02;13.40;;;;;;;41.01;8.82;99586.44;5057579;28;20040;-78
2021/08/17 10:32:50;;;;;;;18.58;12.90;;;;;;;41.20;8.94;99583.44;5040913;28;20045;-77
2021/08/17 10:35:36;;;;;;;23.15;13.98;;;;;;;42.05;8.97;99579.72;5055957;28;20127;-77
2021/08/17 10:38:12;;;;;;;19.45;13.55;;;;;;;42.55;8.80;99590.59;5056328;28;20074;-78
2021/08/17 10:40:54;;;;;;;22.08;12.65;;;;;;;42.63;8.90;99579.34;5056145;28;20594;-77
2021/08/17 10:43:29;;;;;;;24.20;12.77;;;;;;;42.86;8.69;99582.84;5056267;28;20101;-76
2021/08/17 10:45:59;;;;;;;23.90;12.90;;;;;;;42.98;8.33;99572.91;5072886;28;20055;-79
2021/08/17 10:48:48;;;;;;;16.60;12.25;;;;;;;42.84;8.42;99575.88;5040465;28;20044;-77
2021/08/17 10:51:20;;;;;;;21.83;12.93;;;;;;;42.81;8.74;99577.41;5073998;28;20094;-77
2021/08/17 10:54:14;;;;;;;26.70;13.20;;;;;;;43.12;8.53;99573.56;5072842;28;20049;-77
2021/08/17 10:56:40;;;;;;;18.15;12.10;;;;;;;43.23;8.49;99572.06;5053456;28;20052;-78
2021/08/17 10:59:06;;;;;;;18.35;12.57;;;;;;;43.53;8.26;99572.97;5022971;28;20040;-77
2021/08/17 11:01:38;;;;;;;21.85;12.88;;;;;;;43.84;8.03;99577.47;5039302;28;20090;-78
2021/08/17 11:04:10;;;;;;;16.58;13.07;;;;;;;43.91;8.09;99582.63;5023364;28;20043;-77
2021/08/17 11:06:55;;;;;;;16.80;12.30;;;;;;;44.11;8.16;99573.38;5055777;28;20158;-78
2021/08/17 11:09:37;;;;;;;20.40;12.63;;;;;;;44.28;7.78;99575.28;5056632;28;20045;-77
2021/08/17 11:12:05;;;;;;;25.00;12.60;;;;;;;44.30;7.96;99568.13;5055713;28;20047;-78
2021/08/17 11:14:35;;;;;;;24.15;12.57;;;;;;;44.41;7.57;99577.00;5038519;28;20612;-78
2021/08/17 11:17:12;;;;;;;19.88;12.43;;;;;;;44.19;7.81;99563.22;5023013;28;20040;-77
2021/08/17 11:19:40;;;;;;;25.27;12.60;;;;;;;43.33;7.48;99571.69;5057210;28;20033;-77
2021/08/17 11:22:40;;;;;;;26.02;12.77;;;;;;;43.47;8.34;99567.84;5073384;28;20384;-77
2021/08/17 11:25:08;;;;;;;20.20;13.32;;;;;;;42.93;8.17;99560.66;5068868;28;20048;-77
2021/08/17 11:27:41;;;;;;;;;;;;;;;42.83;8.10;99554.56;5055668;28;20506;-77
2021/08/17 11:30:11;;;;;;;19.77;13.02;;;;;;;43.82;8.16;99562.91;5071884;28;19991;-76
2021/08/17 11:32:43;;;;;;;30.48;13.35;;;;;;;44.54;8.03;99561.81;5038418;28;20040;-77
2021/08/17 11:35:17;;;;;;;22.67;12.77;;;;;;;44.96;7.75;99556.16;5039359;28;20403;-76
2021/08/17 11:37:47;;;;;;;20.25;12.52;;;;;;;45.25;7.67;99558.03;5055406;28;20090;-77
2021/08/17 11:40:16;;;;;;;25.00;13.52;;;;;;;45.27;7.75;99547.19;5039777;28;20123;-77
2021/08/17 11:42:43;;;;;;;26.60;14.07;;;;;;;44.95;7.32;99554.50;5055466;28;20388;-76
2021/08/17 11:45:13;;;;;;;26.52;12.95;;;;;;;45.15;7.26;99552.00;5055319;28;20403;-77
2021/08/17 11:47:42;;;;;;;19.58;12.82;;;;;;;45.17;7.63;99549.66;5055895;28;20412;-77